createdAt,value
2019-01-11T00:00:03.801Z,121.37
2019-01-11T00:02:35.647Z,116.30
2019-01-11T00:05:06.287Z,113.67
2019-01-11T00:07:36.453Z,117.73
2019-01-11T00:10:06.711Z,119.03
2019-01-11T00:12:36.866Z,108.27
2019-01-11T00:15:07.133Z,104.30
2019-01-11T00:17:37.290Z,98.90
2019-01-11T00:20:07.545Z,115.13
2019-01-11T00:22:37.838Z,116.83
2019-01-11T00:25:08.415Z,96.97
2019-01-11T00:27:38.599Z,109.80
2019-01-11T00:30:09.222Z,99.37
2019-01-11T00:32:39.367Z,111.43
2019-01-11T00:35:09.705Z,113.97
2019-01-11T00:37:39.853Z,106.13
2019-01-11T00:40:10.010Z,99.07
2019-01-11T00:42:40.222Z,116.70
2019-01-11T00:45:10.617Z,115.57
2019-01-11T00:47:40.757Z,99.47
2019-01-11T00:50:10.914Z,101.53
2019-01-11T00:52:41.089Z,114.50
2019-01-11T00:55:11.438Z,122.93
2019-01-11T00:57:41.637Z,111.93
2019-01-11T01:00:16.053Z,128.10
2019-01-11T01:02:46.217Z,100.83
2019-01-11T01:05:16.561Z,93.53
2019-01-11T01:07:46.826Z,102.57
2019-01-11T01:10:18.569Z,98.90
2019-01-11T01:12:48.926Z,107.03
2019-01-11T01:15:20.072Z,106.07
2019-01-11T01:17:50.311Z,105.50
2019-01-11T01:20:20.618Z,120.07
2019-01-11T01:22:50.813Z,109.30
2019-01-11T01:25:20.957Z,103.03
2019-01-11T01:27:51.106Z,115.63
2019-01-11T01:30:21.381Z,104.50
2019-01-11T01:32:51.534Z,108.87
2019-01-11T01:35:21.709Z,109.37
2019-01-11T01:37:51.859Z,103.13
2019-01-11T01:40:22.034Z,96.17
2019-01-11T01:42:52.203Z,102.43
2019-01-11T01:45:22.433Z,111.77
2019-01-11T01:47:52.683Z,101.47
2019-01-11T01:50:22.853Z,102.77
2019-01-11T01:52:52.986Z,102.37
2019-01-11T01:55:23.138Z,127.13
2019-01-11T01:57:53.281Z,139.40
2019-01-11T02:00:23.430Z,120.67
2019-01-11T02:02:53.601Z,126.23
2019-01-11T02:05:23.765Z,95.63
2019-01-11T02:07:54.131Z,112.07
2019-01-11T02:10:24.325Z,98.20
2019-01-11T02:12:54.510Z,85.10
2019-01-11T02:15:24.653Z,97.93
2019-01-11T02:17:54.894Z,87.73
2019-01-11T02:20:25.042Z,84.10
2019-01-11T02:22:55.209Z,95.83
2019-01-11T02:25:25.448Z,94.83
2019-01-11T02:27:55.705Z,88.50
2019-01-11T02:30:25.883Z,96.13
2019-01-11T02:32:56.039Z,93.13
2019-01-11T02:35:26.188Z,90.43
2019-01-11T02:37:56.332Z,91.13
2019-01-11T02:40:26.511Z,96.40
2019-01-11T02:42:56.722Z,102.60
2019-01-11T02:45:26.878Z,95.67
2019-01-11T02:47:57.046Z,94.67
2019-01-11T02:50:27.190Z,96.07
2019-01-11T02:52:57.343Z,95.87
2019-01-11T02:55:27.490Z,100.13
2019-01-11T02:57:57.670Z,88.33
2019-01-11T03:00:27.826Z,86.13
2019-01-11T03:02:57.982Z,85.80
2019-01-11T03:05:28.191Z,78.67
2019-01-11T03:07:58.326Z,98.23
2019-01-11T03:10:28.503Z,82.07
2019-01-11T03:12:58.722Z,97.50
2019-01-11T03:15:28.894Z,86.37
2019-01-11T03:17:59.041Z,90.97
2019-01-11T03:20:29.190Z,91.40
2019-01-11T03:22:59.423Z,90.73
2019-01-11T03:25:29.610Z,99.17
2019-01-11T03:27:59.809Z,96.73
2019-01-11T03:30:29.996Z,100.93
2019-01-11T03:33:00.226Z,100.80
2019-01-11T03:35:30.446Z,96.43
2019-01-11T03:38:00.599Z,88.93
2019-01-11T03:40:30.811Z,93.10
2019-01-11T03:43:01.065Z,93.77
2019-01-11T03:45:32.276Z,91.47
2019-01-11T03:48:02.483Z,98.97
2019-01-11T03:50:32.656Z,98.47
2019-01-11T03:53:02.880Z,91.07
2019-01-11T03:55:33.162Z,99.33
2019-01-11T03:58:03.324Z,97.03
2019-01-11T04:00:33.534Z,101.57
2019-01-11T04:03:03.713Z,97.57
2019-01-11T04:05:33.853Z,95.10
2019-01-11T04:08:04.021Z,92.00
2019-01-11T04:10:34.200Z,101.77
2019-01-11T04:13:04.346Z,103.60
2019-01-11T04:15:34.863Z,104.57
2019-01-11T04:18:23.969Z,98.97
2019-01-11T04:20:54.116Z,101.30
2019-01-11T04:23:24.295Z,88.30
2019-01-11T04:25:54.499Z,107.63
2019-01-11T04:28:24.735Z,107.83
2019-01-11T04:30:54.906Z,111.83
2019-01-11T04:33:25.054Z,106.70
2019-01-11T04:35:55.257Z,105.47
2019-01-11T04:38:25.517Z,97.53
2019-01-11T04:40:55.670Z,110.77
2019-01-11T04:43:25.908Z,100.13
2019-01-11T04:45:56.054Z,103.47
2019-01-11T04:48:26.223Z,102.23
2019-01-11T04:50:56.435Z,99.07
2019-01-11T04:53:26.607Z,105.37
2019-01-11T04:55:56.759Z,111.50
2019-01-11T04:58:26.906Z,103.17
2019-01-11T05:00:57.083Z,105.73
2019-01-11T05:03:27.233Z,103.77
2019-01-11T05:05:57.389Z,101.77
2019-01-11T05:08:27.573Z,110.20
2019-01-11T05:10:57.802Z,108.63
2019-01-11T05:13:37.909Z,101.47
2019-01-11T05:16:08.090Z,102.40
2019-01-11T05:18:38.254Z,96.47
2019-01-11T05:21:08.489Z,111.00
2019-01-11T05:23:38.668Z,100.83
2019-01-11T05:26:08.902Z,102.00
2019-01-11T05:28:39.068Z,102.90
2019-01-11T05:31:09.218Z,92.13
2019-01-11T05:33:39.365Z,101.70
2019-01-11T05:36:09.545Z,128.50
2019-01-11T05:38:40.746Z,124.00
2019-01-11T05:41:11.015Z,103.87
2019-01-11T05:43:41.303Z,128.83
2019-01-11T05:46:11.517Z,111.33
2019-01-11T05:48:41.680Z,95.90
2019-01-11T05:51:11.861Z,93.23
2019-01-11T05:53:42.883Z,98.27
2019-01-11T05:56:15.317Z,92.17
2019-01-11T05:59:03.135Z,89.53
2019-01-11T06:01:33.282Z,85.33
2019-01-11T06:04:06.790Z,82.47
2019-01-11T06:06:58.669Z,90.70
2019-01-11T06:09:28.831Z,86.17
2019-01-11T06:11:59.002Z,97.63
2019-01-11T06:14:29.134Z,107.27
2019-01-11T06:16:59.290Z,98.13
2019-01-11T06:19:29.498Z,88.47
2019-01-11T06:21:59.683Z,101.90
2019-01-11T06:24:29.861Z,105.07
2019-01-11T06:27:00.010Z,104.03
2019-01-11T06:29:30.206Z,93.77
2019-01-11T06:32:00.475Z,95.23
2019-01-11T06:34:30.623Z,92.70
2019-01-11T06:37:00.770Z,105.53
2019-01-11T06:39:30.929Z,114.60
2019-01-11T06:42:13.421Z,103.80
2019-01-11T06:44:43.647Z,95.60
2019-01-11T06:47:13.847Z,103.23
2019-01-11T06:49:44.006Z,102.30
2019-01-11T06:52:14.183Z,107.10
2019-01-11T06:54:44.322Z,113.53
2019-01-11T06:57:14.462Z,105.57
2019-01-11T06:59:44.649Z,104.77
2019-01-11T07:02:14.839Z,107.33
2019-01-11T07:04:45.054Z,103.23
2019-01-11T07:07:15.234Z,105.47
2019-01-11T07:09:45.455Z,117.40
2019-01-11T07:12:15.893Z,108.30
2019-01-11T07:14:46.043Z,108.67
2019-01-11T07:17:17.027Z,120.20
2019-01-11T07:19:48.140Z,115.10
2019-01-11T07:22:19.561Z,131.90
2019-01-11T07:24:49.774Z,166.67
2019-01-11T07:27:20.040Z,146.87
2019-01-11T07:29:50.185Z,128.73
2019-01-11T07:32:20.583Z,137.93
2019-01-11T07:34:50.723Z,126.90
2019-01-11T07:37:20.871Z,116.83
2019-01-11T07:39:51.058Z,124.67
2019-01-11T07:42:21.202Z,123.63
2019-01-11T07:44:51.414Z,136.53
2019-01-11T07:47:21.641Z,128.77
2019-01-11T07:49:52.185Z,126.57
2019-01-11T07:52:22.380Z,125.53
2019-01-11T07:54:52.529Z,244.80
2019-01-11T07:57:22.721Z,204.60
2019-01-11T07:59:52.866Z,157.50
2019-01-11T08:02:23.045Z,130.37
2019-01-11T08:04:53.273Z,149.13
2019-01-11T08:07:23.523Z,131.33
2019-01-11T08:09:53.710Z,141.37
2019-01-11T08:12:23.897Z,146.63
2019-01-11T08:14:54.178Z,164.90
2019-01-11T08:17:24.321Z,148.30
2019-01-11T08:19:54.638Z,192.10
2019-01-11T08:22:52.665Z,189.73
2019-01-11T08:25:22.975Z,180.53
2019-01-11T08:27:53.149Z,165.97
2019-01-11T08:30:23.380Z,165.10
2019-01-11T08:32:53.542Z,160.83
2019-01-11T08:35:23.775Z,159.17
2019-01-11T08:37:53.957Z,155.33
2019-01-11T08:40:24.124Z,165.43
2019-01-11T08:42:54.349Z,137.23
2019-01-11T08:45:24.666Z,148.83
2019-01-11T08:47:54.896Z,170.47
2019-01-11T08:50:25.239Z,148.50
2019-01-11T08:52:55.781Z,137.50
2019-01-11T08:55:25.965Z,160.03
2019-01-11T08:57:56.132Z,175.93
2019-01-11T09:00:26.302Z,162.97
2019-01-11T09:02:56.465Z,140.30
2019-01-11T09:05:26.695Z,125.83
2019-01-11T09:07:56.937Z,141.57
2019-01-11T09:10:27.078Z,134.77
2019-01-11T09:12:57.233Z,135.63
2019-01-11T09:15:27.382Z,128.93
2019-01-11T09:18:03.075Z,125.80
2019-01-11T09:20:33.269Z,131.23
2019-01-11T09:23:03.404Z,130.37
2019-01-11T09:25:33.579Z,133.60
2019-01-11T09:28:03.821Z,126.87
2019-01-11T09:30:33.984Z,131.30
2019-01-11T09:33:04.323Z,156.57
2019-01-11T09:35:34.618Z,144.37
2019-01-11T09:38:05.023Z,140.97
2019-01-11T09:40:35.831Z,142.20
2019-01-11T09:43:06.144Z,145.23
2019-01-11T09:45:36.313Z,145.47
2019-01-11T09:48:06.566Z,156.77
2019-01-11T09:50:37.284Z,172.90
2019-01-11T09:53:07.504Z,170.10
2019-01-11T09:55:37.752Z,157.03
2019-01-11T09:58:07.981Z,172.60
2019-01-11T10:00:39.120Z,154.57
2019-01-11T10:03:10.833Z,164.97
2019-01-11T10:05:41.921Z,160.53
2019-01-11T10:08:12.053Z,158.17
2019-01-11T10:10:42.254Z,169.33
2019-01-11T10:13:12.558Z,170.10
2019-01-11T10:15:42.810Z,180.27
2019-01-11T10:18:12.974Z,172.10
2019-01-11T10:20:43.153Z,183.77
2019-01-11T10:23:13.386Z,199.57
2019-01-11T10:25:43.613Z,194.87
2019-01-11T10:28:13.779Z,190.93
2019-01-11T10:30:44.033Z,183.03
2019-01-11T10:33:14.234Z,175.20
2019-01-11T10:35:44.517Z,186.93
2019-01-11T10:38:14.657Z,181.47
2019-01-11T10:40:44.869Z,184.97
2019-01-11T10:43:15.013Z,179.80
2019-01-11T10:45:45.193Z,173.20
2019-01-11T10:48:15.346Z,190.50
2019-01-11T10:50:45.520Z,169.63
2019-01-11T10:53:15.743Z,170.67
2019-01-11T10:55:46.035Z,161.33
2019-01-11T10:58:16.201Z,158.50
2019-01-11T11:00:46.635Z,148.03
2019-01-11T11:03:16.781Z,139.27
2019-01-11T11:05:46.926Z,126.40
2019-01-11T11:08:17.110Z,152.43
2019-01-11T11:10:47.710Z,152.70
2019-01-11T11:13:17.855Z,159.73
2019-01-11T11:15:48.424Z,147.63
2019-01-11T11:18:18.623Z,149.17
2019-01-11T11:20:48.757Z,153.90
2019-01-11T11:23:21.197Z,151.20
2019-01-11T11:25:51.337Z,159.07
2019-01-11T11:28:21.898Z,151.80
2019-01-11T11:30:52.038Z,147.33
2019-01-11T11:33:22.182Z,144.67
2019-01-11T11:35:52.318Z,142.90
2019-01-11T11:38:22.469Z,150.20
2019-01-11T11:40:52.959Z,155.17
2019-01-11T11:43:23.133Z,145.93
2019-01-11T11:45:53.354Z,138.53
2019-01-11T11:48:23.794Z,147.03
2019-01-11T11:50:54.025Z,151.90
2019-01-11T11:53:25.240Z,143.50
2019-01-11T11:55:55.487Z,149.37
2019-01-11T11:58:25.756Z,153.50
2019-01-11T12:00:56.321Z,151.57
2019-01-11T12:03:26.477Z,150.63
2019-01-11T12:05:56.691Z,144.47
2019-01-11T12:08:26.914Z,144.60
2019-01-11T12:10:57.061Z,139.90
2019-01-11T12:13:27.229Z,134.30
2019-01-11T12:15:57.510Z,137.83
2019-01-11T12:18:27.746Z,136.33
2019-01-11T12:20:57.920Z,135.30
2019-01-11T12:23:28.154Z,137.57
2019-01-11T12:25:58.494Z,146.03
2019-01-11T12:28:28.669Z,152.47
2019-01-11T12:30:58.976Z,163.07
2019-01-11T12:33:29.119Z,143.17
2019-01-11T12:35:59.361Z,160.33
2019-01-11T12:38:29.595Z,188.57
2019-01-11T12:40:59.754Z,148.77
2019-01-11T12:43:33.394Z,153.13
2019-01-11T12:46:03.337Z,158.67
2019-01-11T12:48:33.503Z,144.10
2019-01-11T12:51:03.645Z,154.00
2019-01-11T12:53:34.857Z,153.57
2019-01-11T12:56:04.995Z,152.27
2019-01-11T12:58:35.146Z,151.63
2019-01-11T13:01:06.697Z,140.90
2019-01-11T13:03:37.250Z,147.80
2019-01-11T13:06:07.435Z,149.63
2019-01-11T13:08:37.661Z,154.33
2019-01-11T13:11:07.851Z,142.77
2019-01-11T13:13:38.194Z,156.27
2019-01-11T13:16:08.334Z,154.30
2019-01-11T13:18:38.521Z,146.53
2019-01-11T13:21:09.062Z,157.43
2019-01-11T13:23:39.346Z,154.80
2019-01-11T13:26:10.587Z,147.73
2019-01-11T13:28:40.783Z,156.90
2019-01-11T13:31:11.024Z,156.23
2019-01-11T13:33:41.286Z,171.30
2019-01-11T13:36:15.717Z,174.37
2019-01-11T13:38:45.987Z,196.70
2019-01-11T13:41:16.201Z,175.33
2019-01-11T13:43:47.438Z,174.17
2019-01-11T13:46:17.601Z,176.20
2019-01-11T13:48:47.794Z,172.67
2019-01-11T13:51:18.002Z,169.87
2019-01-11T13:53:48.230Z,161.83
2019-01-11T13:56:18.378Z,169.10
2019-01-11T13:58:48.671Z,171.17
2019-01-11T14:01:18.946Z,172.90
2019-01-11T14:03:49.166Z,178.63
2019-01-11T14:06:19.414Z,171.17
2019-01-11T14:08:49.737Z,172.00
2019-01-11T14:11:19.891Z,185.20
2019-01-11T14:13:50.110Z,176.30
2019-01-11T14:16:20.402Z,175.87
2019-01-11T14:18:50.558Z,194.27
2019-01-11T14:21:20.694Z,188.97
2019-01-11T14:23:50.847Z,195.73
2019-01-11T14:26:21.001Z,188.50
2019-01-11T14:28:51.144Z,200.33
2019-01-11T14:31:21.596Z,204.70
2019-01-11T14:33:51.757Z,198.60
2019-01-11T14:36:21.986Z,186.83
2019-01-11T14:38:52.121Z,196.17
2019-01-11T14:41:23.076Z,198.23
2019-01-11T14:43:53.257Z,183.13
2019-01-11T14:46:23.571Z,218.70
2019-01-11T14:48:53.793Z,195.63
2019-01-11T14:51:23.938Z,185.13
2019-01-11T14:53:54.126Z,187.57
2019-01-11T14:56:24.278Z,189.37
2019-01-11T14:58:54.534Z,192.80
2019-01-11T15:01:24.706Z,191.93
2019-01-11T15:03:55.003Z,179.40
2019-01-11T15:06:25.200Z,180.53
2019-01-11T15:08:55.334Z,184.57
2019-01-11T15:11:25.489Z,178.47
2019-01-11T15:13:55.658Z,171.20
2019-01-11T15:16:25.810Z,174.80
2019-01-11T15:18:55.965Z,161.10
2019-01-11T15:21:26.131Z,181.13
2019-01-11T15:23:56.288Z,159.07
2019-01-11T15:26:26.450Z,164.83
2019-01-11T15:28:56.834Z,161.73
2019-01-11T15:31:26.989Z,162.33
2019-01-11T15:33:57.142Z,157.70
2019-01-11T15:36:27.439Z,152.37
2019-01-11T15:38:57.621Z,146.83
2019-01-11T15:41:27.788Z,148.93
2019-01-11T15:43:57.990Z,147.17
2019-01-11T15:46:28.150Z,143.97
2019-01-11T15:48:59.408Z,151.60
2019-01-11T15:51:31.188Z,144.83
2019-01-11T15:54:02.409Z,161.13
2019-01-11T15:56:33.553Z,152.37
2019-01-11T15:59:03.808Z,114.23
2019-01-11T16:01:34.067Z,145.13
2019-01-11T16:04:08.981Z,143.50
2019-01-11T16:06:40.788Z,152.50
2019-01-11T16:10:02.176Z,141.13
2019-01-11T16:12:53.342Z,117.93
2019-01-11T16:16:15.097Z,141.40
2019-01-11T16:18:45.446Z,137.07
2019-01-11T16:21:15.674Z,140.60
2019-01-11T16:23:45.859Z,134.77
2019-01-11T16:26:16.002Z,125.83
2019-01-11T16:28:46.302Z,133.27
2019-01-11T16:31:16.456Z,118.07
2019-01-11T16:33:47.622Z,131.53
2019-01-11T16:36:17.797Z,124.60
2019-01-11T16:38:47.940Z,116.07
2019-01-11T16:41:19.077Z,131.73
2019-01-11T16:43:49.446Z,121.37
2019-01-11T16:46:19.637Z,123.40
2019-01-11T16:48:49.831Z,112.77
2019-01-11T16:51:22.349Z,119.03
2019-01-11T16:53:52.580Z,116.73
2019-01-11T16:56:23.800Z,122.87
2019-01-11T16:58:54.053Z,104.67
2019-01-11T17:01:24.561Z,110.90
2019-01-11T17:03:54.958Z,106.40
2019-01-11T17:06:25.240Z,120.90
2019-01-11T17:08:55.373Z,116.90
2019-01-11T17:11:25.592Z,140.47
2019-01-11T17:13:55.734Z,117.87
2019-01-11T17:16:25.877Z,97.67
2019-01-11T17:18:56.185Z,108.13
2019-01-11T17:21:26.697Z,99.80
2019-01-11T17:23:56.862Z,102.00
2019-01-11T17:26:27.083Z,102.00
2019-01-11T17:29:00.160Z,101.27
2019-01-11T17:31:30.571Z,112.43
2019-01-11T17:34:00.742Z,108.63
2019-01-11T17:36:31.117Z,98.00
2019-01-11T17:39:01.322Z,102.47
2019-01-11T17:41:33.455Z,102.30
2019-01-11T17:44:03.901Z,105.13
2019-01-11T17:46:34.138Z,108.27
2019-01-11T17:49:04.559Z,113.70
2019-01-11T17:51:34.761Z,107.77
2019-01-11T17:54:05.242Z,140.77
2019-01-11T17:56:36.532Z,132.00
2019-01-11T17:59:06.796Z,120.03
2019-01-11T18:01:37.151Z,128.67
2019-01-11T18:04:07.531Z,124.67
2019-01-11T18:06:37.892Z,119.17
2019-01-11T18:09:09.073Z,117.00
2019-01-11T18:11:39.450Z,104.63
2019-01-11T18:14:09.760Z,120.30
2019-01-11T18:16:40.193Z,159.70
2019-01-11T18:19:10.506Z,117.23
2019-01-11T18:21:40.716Z,118.00
2019-01-11T18:24:11.169Z,118.60
2019-01-11T18:26:41.831Z,127.30
2019-01-11T18:29:12.459Z,125.77
2019-01-11T18:31:42.796Z,125.60
2019-01-11T18:34:12.995Z,116.93
2019-01-11T18:36:43.426Z,135.77
2019-01-11T18:39:15.670Z,119.50
2019-01-11T18:41:45.949Z,128.83
2019-01-11T18:44:16.288Z,125.50
2019-01-11T18:46:46.642Z,123.43
2019-01-11T18:49:16.821Z,125.00
2019-01-11T18:51:47.085Z,127.17
2019-01-11T18:54:17.218Z,115.43
2019-01-11T18:56:48.558Z,108.37
2019-01-11T18:59:18.904Z,119.70
2019-01-11T19:01:49.184Z,118.13
2019-01-11T19:04:19.413Z,114.43
2019-01-11T19:06:49.638Z,107.97
2019-01-11T19:09:19.861Z,107.17
2019-01-11T19:11:50.123Z,113.97
2019-01-11T19:14:20.313Z,110.97
2019-01-11T19:16:50.478Z,108.07
2019-01-11T19:19:20.642Z,109.03
2019-01-11T19:21:50.914Z,107.07
2019-01-11T19:24:21.134Z,110.37
2019-01-11T19:26:52.402Z,87.90
2019-01-11T19:29:22.569Z,105.53
2019-01-11T19:31:52.822Z,99.43
2019-01-11T19:34:23.050Z,94.73
2019-01-11T19:36:53.355Z,101.63
2019-01-11T19:39:23.634Z,118.30
2019-01-11T19:41:53.889Z,139.70
2019-01-11T19:44:24.137Z,102.53
2019-01-11T19:46:54.441Z,95.43
2019-01-11T19:49:24.698Z,101.47
2019-01-11T19:51:54.851Z,89.37
2019-01-11T19:54:25.018Z,86.77
2019-01-11T19:56:56.867Z,90.93
2019-01-11T19:59:27.043Z,91.00
2019-01-11T20:01:57.324Z,82.87
2019-01-11T20:04:27.539Z,91.40
2019-01-11T20:06:57.734Z,87.27
2019-01-11T20:09:29.179Z,97.27
2019-01-11T20:12:00.886Z,80.60
2019-01-11T20:14:31.322Z,84.90
2019-01-11T20:17:01.638Z,76.67
2019-01-11T20:19:31.869Z,79.53
2019-01-11T20:22:02.167Z,78.13
2019-01-11T20:24:33.705Z,77.30
2019-01-11T20:27:04.068Z,75.57
2019-01-11T20:29:34.281Z,75.07
2019-01-11T20:32:04.625Z,76.50
2019-01-11T20:34:35.887Z,80.27
2019-01-11T20:37:25.009Z,77.10
2019-01-11T20:39:55.217Z,73.87
2019-01-11T20:42:25.455Z,74.37
2019-01-11T20:44:55.767Z,79.13
2019-01-11T20:47:25.962Z,75.90
2019-01-11T20:49:56.105Z,73.10
2019-01-11T20:52:26.297Z,74.20
2019-01-11T20:54:56.580Z,70.33
2019-01-11T20:57:27.757Z,71.67
2019-01-11T20:59:57.914Z,70.97
2019-01-11T21:02:28.189Z,71.20
2019-01-11T21:05:00.589Z,66.13
2019-01-11T21:07:32.194Z,67.37
2019-01-11T21:10:02.403Z,73.20
2019-01-11T21:12:32.936Z,70.00
2019-01-11T21:15:04.720Z,70.07
2019-01-11T21:17:36.162Z,73.17
2019-01-11T21:20:08.755Z,72.47
2019-01-11T21:22:39.120Z,66.57
2019-01-11T21:25:11.213Z,73.17
2019-01-11T21:27:41.504Z,72.73
2019-01-11T21:30:28.665Z,78.33
2019-01-11T21:32:59.010Z,81.83
2019-01-11T21:35:30.066Z,72.00
2019-01-11T21:38:00.470Z,74.17
2019-01-11T21:40:31.125Z,71.80
2019-01-11T21:43:01.646Z,79.27
2019-01-11T21:45:31.791Z,76.60
2019-01-11T21:48:02.265Z,78.67
2019-01-11T21:50:32.496Z,73.13
2019-01-11T21:53:02.775Z,77.17
2019-01-11T21:55:33.013Z,74.10
2019-01-11T21:58:04.435Z,74.23
2019-01-11T22:00:45.596Z,75.97
2019-01-11T22:03:20.793Z,73.70
2019-01-11T22:05:51.534Z,75.90
2019-01-11T22:08:21.761Z,73.03
2019-01-11T22:10:52.005Z,73.00
2019-01-11T22:13:23.329Z,73.70
2019-01-11T22:15:53.520Z,76.13
2019-01-11T22:18:23.667Z,75.47
2019-01-11T22:20:54.102Z,65.40
2019-01-11T22:23:24.283Z,68.33
2019-01-11T22:25:54.549Z,70.30
2019-01-11T22:28:24.699Z,73.97
2019-01-11T22:30:55.694Z,70.50
2019-01-11T22:33:25.911Z,77.63
2019-01-11T22:35:56.064Z,80.07
2019-01-11T22:38:26.448Z,78.03
2019-01-11T22:40:56.635Z,77.47
2019-01-11T22:43:26.834Z,73.37
2019-01-11T22:45:57.070Z,72.47
2019-01-11T22:48:27.238Z,79.47
2019-01-11T22:50:57.374Z,74.20
2019-01-11T22:53:27.650Z,82.70
2019-01-11T22:55:57.817Z,82.57
2019-01-11T22:58:28.874Z,73.33
2019-01-11T23:01:20.581Z,74.07
2019-01-11T23:03:53.792Z,74.57
2019-01-11T23:06:41.285Z,77.00
2019-01-11T23:09:14.186Z,72.50
2019-01-11T23:12:01.294Z,77.37
2019-01-11T23:14:31.466Z,75.57
2019-01-11T23:17:21.285Z,74.97
2019-01-11T23:19:52.569Z,76.47
2019-01-11T23:22:22.947Z,69.43
2019-01-11T23:24:53.169Z,65.27
2019-01-11T23:27:24.377Z,82.23
2019-01-11T23:29:54.672Z,67.47
2019-01-11T23:32:24.805Z,66.33
2019-01-11T23:34:55.014Z,66.67
2019-01-11T23:37:25.253Z,66.17
2019-01-11T23:39:55.409Z,66.10
2019-01-11T23:42:25.854Z,75.23
2019-01-11T23:44:56.014Z,71.90
2019-01-11T23:47:26.202Z,71.13
2019-01-11T23:49:56.609Z,70.47
2019-01-11T23:52:26.765Z,61.97
2019-01-11T23:54:57.189Z,58.47
2019-01-11T23:57:27.476Z,59.90
2019-01-11T23:59:58.655Z,63.47
